If you wish to contribute or participate in the discussions about articles you are invited to join SKYbrary as a registered user

 Actions

Rijeka Airport

From SKYbrary Wiki

LDRI /
Revision as of 15:57, 25 August 2021 by Integration.Manager (talk | contribs) (Created page with "{{Airport |Airport_Name=Rijeka Airport |ICAO_Region=EUR |ICAO_Territory=LD |IATA Code=RJK |Elevation=278ft |Location=Omisalj |Main city served=Rijeka |ISO_Subdivision_Name=Krk...")
(diff) ← Older revision | Latest revision (diff) | Newer revision → (diff)
Airport
ICAO: LDRI – IATA: RJK
Summary
Name Rijeka Airport
Region Europe
Territory Croatia HR.gif
Location Omisalj, Krk
Serving Rijeka
Elevation 84.734 m <br />278 ft84.734 m <br />
Coordinates 45° 13' 0.34" N, 14° 34' 15.46" E
Runways
Designator Length Width Surface ROPS
14/32 2488 m8,162.73 ft <br /> 45 m147.638 ft <br /> PEM yes/yes


METAR
Observation LDRI 270000Z VRB03KT 9999 SCT047 15/03 Q1023
Station Rijeka / Omisalj
Date/Time 27 October 2021 00:00:00
Wind direction °
Wind speed 03 kts
Lowest cloud amount scattered clouds
Temperature 15°C
Dew point 3°C
Humidity 44%
QNH 1023 hPa
Weather condition n/a

Rijeka Airport is the international airport serving Rijeka, Croatia.

Climatology

Humid subtropical climate (Köppen climate classification Cfa)

Maps

Terrain

Loading map...

Airport Layout

Loading map...


Accidents & Serious Incidents at or in vicinity of LDRI

None on SKYbrary